createdAt,value
2018-09-26T00:01:01.173Z,436.8
2018-09-26T00:02:03.600Z,437.1
2018-09-26T00:03:05.753Z,437.1
2018-09-26T00:04:08.178Z,437.5
2018-09-26T00:05:10.601Z,438
2018-09-26T00:06:13.045Z,437.6
2018-09-26T00:07:15.473Z,437.7
2018-09-26T00:08:17.891Z,437.7
2018-09-26T00:09:20.317Z,437.9
2018-09-26T00:10:22.739Z,437.4
2018-09-26T00:11:25.172Z,437.4
2018-09-26T00:12:27.595Z,437.7
2018-09-26T00:13:30.029Z,437.8
2018-09-26T00:14:32.504Z,437.5
2018-09-26T00:15:34.942Z,437.2
2018-09-26T00:16:37.385Z,437.4
2018-09-26T00:17:39.834Z,436.4
2018-09-26T00:18:42.277Z,436.6
2018-09-26T00:19:44.403Z,436.5
2018-09-26T00:20:46.832Z,436.6
2018-09-26T00:21:49.263Z,436.2
2018-09-26T00:22:51.690Z,436.7
2018-09-26T00:23:54.116Z,437.3
2018-09-26T00:24:56.542Z,437.1
2018-09-26T00:25:58.965Z,437.1
2018-09-26T00:27:01.391Z,437.2
2018-09-26T00:28:03.828Z,437.7
2018-09-26T00:29:06.252Z,437.7
2018-09-26T00:30:08.696Z,438.1
2018-09-26T00:31:11.124Z,437.9
2018-09-26T00:32:13.558Z,438.5
2018-09-26T00:33:16.023Z,438.4
2018-09-26T00:34:18.453Z,438.9
2018-09-26T00:35:20.576Z,439.2
2018-09-26T00:36:22.845Z,439.3
2018-09-26T00:37:25.463Z,439.6
2018-09-26T00:38:27.886Z,439.6
2018-09-26T00:39:30.021Z,439.6
2018-09-26T00:40:32.443Z,439.4
2018-09-26T00:41:34.878Z,439.8
2018-09-26T00:42:37.302Z,439.9
2018-09-26T00:43:39.459Z,439.8
2018-09-26T00:44:41.896Z,439.7
2018-09-26T00:45:44.332Z,440
2018-09-26T00:46:46.485Z,440.2
2018-09-26T00:47:48.638Z,440.4
2018-09-26T00:48:51.072Z,440.4
2018-09-26T00:49:53.224Z,440.7
2018-09-26T00:50:55.648Z,441
2018-09-26T00:51:58.072Z,440.7
2018-09-26T00:53:00.492Z,441.1
2018-09-26T00:54:02.912Z,441
2018-09-26T00:55:05.336Z,441.6
2018-09-26T04:20:53.207Z,453.2
2018-09-26T04:21:55.647Z,453
2018-09-26T04:22:58.067Z,453.2
2018-09-26T04:24:00.501Z,453.5
2018-09-26T04:25:02.935Z,453.4
2018-09-26T04:26:05.464Z,453.3
2018-09-26T04:27:08.261Z,453.7
2018-09-26T04:28:10.801Z,453.6
2018-09-26T04:29:13.096Z,453.8
2018-09-26T04:30:15.734Z,453.7
2018-09-26T04:31:18.220Z,453.6
2018-09-26T04:32:20.122Z,453.6
2018-09-26T04:33:23.266Z,453.7
2018-09-26T04:34:24.997Z,453.5
2018-09-26T04:35:27.435Z,453.3
2018-09-26T04:36:29.575Z,453.4
2018-09-26T04:37:32.001Z,453.2
2018-09-26T04:38:34.892Z,453.6
2018-09-26T04:39:36.846Z,453.5
2018-09-26T04:40:39.282Z,453.7
2018-09-26T04:41:41.720Z,454.1
2018-09-26T04:42:43.890Z,454.3
2018-09-26T04:43:45.784Z,454.6
2018-09-26T04:44:47.935Z,454.7
2018-09-26T04:45:50.104Z,454.3
2018-09-26T04:46:52.228Z,454.6
2018-09-26T04:47:54.398Z,454.4
2018-09-26T04:48:56.824Z,454.1
2018-09-26T04:49:59.255Z,454.5
2018-09-26T04:51:01.701Z,454.7
2018-09-26T04:52:15.827Z,454.6
2018-09-26T04:53:18.254Z,454.6
2018-09-26T04:54:20.678Z,454.8
2018-09-26T04:55:23.115Z,454.9
2018-09-26T04:56:25.543Z,454.9
2018-09-26T04:57:27.133Z,455.1
2018-09-26T04:58:29.281Z,455.2
2018-09-26T04:59:31.203Z,455.5
2018-09-26T05:00:33.668Z,455.7
2018-09-26T05:01:36.108Z,455.9
2018-09-26T05:02:38.560Z,455.5
2018-09-26T05:03:40.768Z,455.5
2018-09-26T05:04:42.944Z,455.3
2018-09-26T05:05:45.388Z,455
2018-09-26T05:06:47.559Z,454.6
2018-09-26T05:07:49.992Z,454.2
2018-09-26T05:08:52.351Z,454.1
2018-09-26T05:09:54.552Z,454
2018-09-26T05:10:56.712Z,453.7
2018-09-26T05:11:59.138Z,453.2
2018-09-26T05:13:01.014Z,452.9
2018-09-26T05:14:03.157Z,453.2
2018-09-26T05:15:05.032Z,453
2018-09-26T05:16:07.476Z,452.6
2018-09-26T05:17:09.901Z,452.5
2018-09-26T05:18:12.330Z,452.4
2018-09-26T05:19:14.757Z,452.4
2018-09-26T05:20:16.899Z,452.3
2018-09-26T05:21:19.323Z,452.3
2018-09-26T05:22:21.476Z,452.3
2018-09-26T05:23:23.908Z,452.2
2018-09-26T05:24:25.780Z,452.4
2018-09-26T05:25:27.924Z,452.4
2018-09-26T05:26:30.360Z,452.5
2018-09-26T05:27:32.548Z,452.6
2018-09-26T05:28:34.977Z,452.6
2018-09-26T05:29:37.413Z,452.3
2018-09-26T05:30:39.842Z,452
2018-09-26T05:31:42.022Z,452.2
2018-09-26T05:32:44.442Z,451.8
2018-09-26T05:33:46.583Z,451.8
2018-09-26T05:34:49.021Z,452
2018-09-26T05:35:51.444Z,451.5
2018-09-26T05:36:53.897Z,451.8
2018-09-26T05:37:56.428Z,451.6
2018-09-26T05:38:58.904Z,451.6
2018-09-26T05:40:01.726Z,451.5
2018-09-26T05:41:04.198Z,451.3
2018-09-26T05:42:06.649Z,450.9
2018-09-26T05:43:08.512Z,451.4
2018-09-26T05:44:10.950Z,451.2
2018-09-26T05:45:13.381Z,451.2
2018-09-26T05:46:15.821Z,450.7
2018-09-26T05:47:17.970Z,450.9
2018-09-26T05:48:19.847Z,450.7
2018-09-26T05:49:22.300Z,450.8
2018-09-26T05:50:24.726Z,450.5
2018-09-26T05:51:26.880Z,450.6
2018-09-26T05:52:29.346Z,450.4
2018-09-26T05:53:31.907Z,450.3
2018-09-26T05:54:34.051Z,450.5
2018-09-26T05:55:35.952Z,449.8
2018-09-26T05:56:38.103Z,450.1
2018-09-26T05:57:40.265Z,450
2018-09-26T05:58:42.435Z,450.1
2018-09-26T05:59:44.931Z,450
2018-09-26T06:00:47.122Z,450
2018-09-26T06:01:49.260Z,450.1
2018-09-26T06:02:51.418Z,450
2018-09-26T06:03:53.668Z,450.2
2018-09-26T06:04:56.165Z,450.3
2018-09-26T06:05:58.372Z,450.4
2018-09-26T06:07:00.538Z,450.5
2018-09-26T06:08:02.972Z,450.5
2018-09-26T06:09:05.183Z,450.5
2018-09-26T06:10:07.616Z,450.3
2018-09-26T06:11:10.061Z,450.4
2018-09-26T06:12:12.490Z,450.6
2018-09-26T06:13:14.941Z,450.9
2018-09-26T06:14:17.121Z,451.1
2018-09-26T06:15:19.550Z,450.9
2018-09-26T06:16:21.705Z,450.8
2018-09-26T06:17:23.847Z,450.8
2018-09-26T06:18:26.276Z,450.4
2018-09-26T06:19:28.706Z,450.4
2018-09-26T06:20:30.610Z,450.3
2018-09-26T06:21:32.780Z,450.4
2018-09-26T06:22:34.950Z,450
2018-09-26T06:23:37.078Z,450.1
2018-09-26T06:24:39.762Z,450.1
2018-09-26T06:25:41.839Z,449.9
2018-09-26T06:26:43.982Z,449.8
2018-09-26T06:27:46.421Z,449.5
2018-09-26T06:28:48.864Z,449.5
2018-09-26T06:29:51.015Z,448.8
2018-09-26T06:30:53.446Z,448.6
2018-09-26T06:31:55.896Z,448.2
2018-09-26T06:32:58.325Z,448.2
2018-09-26T06:34:00.754Z,447.9
2018-09-26T06:35:03.607Z,447.6
2018-09-26T06:36:06.049Z,447.6
2018-09-26T06:37:08.481Z,447.7
2018-09-26T06:38:10.348Z,447.6
2018-09-26T06:39:12.767Z,447.8
2018-09-26T06:40:14.928Z,447.6
2018-09-26T06:41:17.344Z,447.3
2018-09-26T06:42:19.496Z,447.3
2018-09-26T06:43:21.648Z,447.7
2018-09-26T06:44:23.811Z,447.9
2018-09-26T06:45:26.255Z,448.3
2018-09-26T06:46:28.417Z,447.9
2018-09-26T06:47:30.804Z,447.6
2018-09-26T06:48:33.301Z,447.2
2018-09-26T06:49:35.735Z,447.2
2018-09-26T06:50:37.885Z,447.2
2018-09-26T06:51:40.376Z,447.5
2018-09-26T06:52:42.811Z,447.3
2018-09-26T06:53:44.982Z,447.5
2018-09-26T06:54:47.414Z,447.2
2018-09-26T06:55:49.858Z,447.7
2018-09-26T06:56:51.746Z,447.4
2018-09-26T06:57:54.179Z,447.5
2018-09-26T06:58:56.340Z,447.4
2018-09-26T06:59:58.763Z,447.3
2018-09-26T07:01:01.218Z,447.4
2018-09-26T07:02:03.644Z,447.5
2018-09-26T07:03:06.074Z,447
2018-09-26T07:04:08.527Z,446.9
2018-09-26T07:05:10.956Z,446.8
2018-09-26T07:06:13.716Z,447.3
2018-09-26T07:07:16.156Z,447.2
2018-09-26T07:08:18.582Z,447.3
2018-09-26T07:09:21.015Z,447.4
2018-09-26T07:10:23.488Z,447.7
2018-09-26T07:11:25.937Z,447.9
2018-09-26T07:12:28.383Z,447.4
2018-09-26T07:13:30.548Z,447.9
2018-09-26T07:14:32.982Z,447.7
2018-09-26T07:15:35.158Z,448
2018-09-26T07:16:37.576Z,448.1
2018-09-26T07:17:39.999Z,448.3
2018-09-26T07:18:42.444Z,448.3
2018-09-26T07:19:44.601Z,448.2
2018-09-26T07:20:47.030Z,448.3
2018-09-26T07:21:49.468Z,448.6
2018-09-26T07:22:51.986Z,448.7
2018-09-26T07:23:54.619Z,448.9
2018-09-26T07:24:57.036Z,449
2018-09-26T07:25:59.470Z,449.1
2018-09-26T07:27:01.627Z,449.3
2018-09-26T07:28:04.072Z,449.6
2018-09-26T07:29:06.503Z,449.8
2018-09-26T07:30:08.651Z,449.7
2018-09-26T07:31:11.082Z,449.8
2018-09-26T07:32:12.955Z,450.1
2018-09-26T07:33:15.407Z,450.5
2018-09-26T07:34:17.850Z,450.8
2018-09-26T07:35:20.283Z,450.4
2018-09-26T07:36:22.480Z,450.4
2018-09-26T07:37:24.637Z,450
2018-09-26T07:38:26.893Z,450.3
2018-09-26T07:39:29.357Z,450.3
2018-09-26T07:40:31.782Z,450.1
2018-09-26T07:41:33.955Z,450.4
2018-09-26T07:42:36.116Z,450.6
2018-09-26T07:43:38.289Z,450.6
2018-09-26T07:44:40.712Z,451
2018-09-26T07:45:43.374Z,450.9
2018-09-26T07:46:45.534Z,451
2018-09-26T07:47:47.433Z,451
2018-09-26T07:48:49.602Z,451.3
2018-09-26T07:49:52.040Z,451.1
2018-09-26T07:50:54.473Z,450.9
2018-09-26T07:51:56.610Z,450.7
2018-09-26T07:52:58.865Z,450.8
2018-09-26T07:54:01.292Z,450.3
2018-09-26T07:55:03.448Z,450.1
2018-09-26T07:56:05.348Z,450.2
2018-09-26T07:57:07.496Z,449.8
2018-09-26T07:58:09.940Z,450.3
2018-09-26T07:59:12.488Z,450.2
2018-09-26T08:00:14.974Z,450.1
2018-09-26T08:01:17.424Z,449.9
2018-09-26T08:02:19.857Z,449.4
2018-09-26T08:03:22.289Z,449.9
2018-09-26T08:04:24.445Z,449.2
2018-09-26T08:05:26.896Z,449
2018-09-26T08:06:29.328Z,449.2
2018-09-26T08:07:31.761Z,449.6
2018-09-26T08:08:33.917Z,449.8
2018-09-26T08:09:36.082Z,450
2018-09-26T08:10:38.528Z,449.7
2018-09-26T08:11:41.321Z,449.3
2018-09-26T08:12:43.768Z,449.8
2018-09-26T08:13:46.226Z,449.7
2018-09-26T08:14:48.378Z,449.6
2018-09-26T08:15:50.820Z,449.7
2018-09-26T08:16:53.247Z,450
2018-09-26T08:17:55.688Z,449.4
2018-09-26T08:18:57.848Z,449.5
2018-09-26T08:20:00.000Z,449.2
2018-09-26T08:21:02.157Z,448.9
2018-09-26T08:22:04.597Z,449.1
2018-09-26T08:23:07.031Z,448.7
2018-09-26T08:24:10.337Z,448.7
2018-09-26T08:25:12.927Z,448.6
2018-09-26T08:26:15.360Z,449.5
2018-09-26T08:27:17.521Z,449.8
2018-09-26T08:28:19.942Z,449.9
2018-09-26T08:29:22.089Z,449.1
2018-09-26T08:30:24.010Z,449.3
2018-09-26T08:31:26.186Z,449.3
2018-09-26T08:32:28.624Z,448.9
2018-09-26T08:33:30.782Z,449
2018-09-26T08:34:33.214Z,448.6
2018-09-26T08:35:35.649Z,448.6
2018-09-26T08:36:38.096Z,448.6
2018-09-26T08:37:40.551Z,448.6
2018-09-26T08:38:42.998Z,448.7
2018-09-26T08:39:45.431Z,448.6
2018-09-26T08:40:47.593Z,448.8
2018-09-26T08:41:49.447Z,448.3
2018-09-26T08:42:51.878Z,448.5
2018-09-26T08:43:55.176Z,448.8
2018-09-26T08:44:57.666Z,448.8
2018-09-26T08:46:00.088Z,449.1
2018-09-26T08:47:02.517Z,449.4
2018-09-26T08:48:04.667Z,449.5
2018-09-26T08:49:07.098Z,450.1
2018-09-26T08:50:09.269Z,450
2018-09-26T08:51:11.438Z,449.7
2018-09-26T08:52:13.867Z,449.7
2018-09-26T08:53:16.302Z,450.1
2018-09-26T08:54:18.459Z,450.2
2018-09-26T08:55:20.625Z,450
2018-09-26T08:56:23.040Z,449.5
2018-09-26T08:57:25.472Z,449.5
2018-09-26T08:58:27.899Z,449.3
2018-09-26T08:59:30.333Z,448.9
2018-09-26T09:00:32.819Z,448.8
2018-09-26T09:01:35.247Z,448.5
2018-09-26T09:02:37.425Z,448.6
2018-09-26T09:03:40.450Z,448.3
2018-09-26T09:04:42.604Z,448.3
2018-09-26T09:05:44.461Z,448.4
2018-09-26T09:06:46.883Z,448.2
2018-09-26T09:07:49.059Z,448.5
2018-09-26T09:08:51.485Z,448.6
2018-09-26T09:09:53.636Z,448.7
2018-09-26T09:10:55.796Z,448.5
2018-09-26T09:11:57.950Z,448.8
2018-09-26T09:13:00.369Z,448.9
2018-09-26T09:14:02.828Z,449.6
2018-09-26T09:15:04.988Z,449.5
2018-09-26T09:16:07.157Z,449.5
2018-09-26T09:17:09.597Z,449.4
2018-09-26T09:18:12.030Z,449.6
2018-09-26T09:19:14.184Z,449.8
2018-09-26T09:20:16.967Z,449.9
2018-09-26T09:21:19.468Z,450.1
2018-09-26T09:22:21.916Z,450.2
2018-09-26T09:23:24.345Z,450
2018-09-26T09:24:26.780Z,450.2
2018-09-26T09:25:28.934Z,449.6
2018-09-26T09:26:31.366Z,449.4
2018-09-26T09:27:34.115Z,449.3
2018-09-26T09:28:36.548Z,449.6
2018-09-26T09:29:38.711Z,449.4
2018-09-26T09:30:40.887Z,450.3
2018-09-26T09:31:43.329Z,450.9
2018-09-26T09:32:45.477Z,450.4
2018-09-26T09:33:47.915Z,450.7
2018-09-26T09:34:50.348Z,450.5
2018-09-26T09:35:52.778Z,450.6
2018-09-26T09:36:54.916Z,451.1
2018-09-26T09:37:57.373Z,451
2018-09-26T09:38:59.527Z,451.1
2018-09-26T09:40:01.960Z,451.2
2018-09-26T09:41:04.131Z,451.4
2018-09-26T09:42:06.613Z,451.7
2018-09-26T09:43:09.088Z,451.7
2018-09-26T09:44:12.334Z,451.4
2018-09-26T09:45:14.768Z,451.8
2018-09-26T09:46:17.201Z,451.3
2018-09-26T09:47:19.633Z,451.5
2018-09-26T09:48:22.075Z,451.3
2018-09-26T09:49:24.239Z,451.7
2018-09-26T09:50:26.528Z,451.8
2018-09-26T09:51:28.921Z,451.6
2018-09-26T09:52:31.347Z,451.7
2018-09-26T09:53:33.774Z,451.7
2018-09-26T09:54:36.206Z,451.7
2018-09-26T09:55:38.649Z,451.7
2018-09-26T09:56:41.096Z,452
2018-09-26T09:57:43.514Z,451.8
2018-09-26T09:58:45.948Z,452.3
2018-09-26T09:59:48.400Z,451.8
2018-09-26T10:00:50.829Z,451.9
2018-09-26T10:01:53.262Z,451.8
2018-09-26T10:02:56.445Z,452
2018-09-26T10:03:58.959Z,452.1
2018-09-26T10:05:01.407Z,452.2
2018-09-26T10:06:03.839Z,452.1
2018-09-26T10:07:06.042Z,452.3
2018-09-26T10:08:08.574Z,452.5
2018-09-26T10:09:10.989Z,452.6
2018-09-26T10:10:13.433Z,452.7
2018-09-26T10:11:15.872Z,452.7
2018-09-26T10:12:18.312Z,453.1
2018-09-26T10:13:20.743Z,452.8
2018-09-26T10:14:23.677Z,452.4
2018-09-26T10:15:26.110Z,452.2
2018-09-26T10:16:28.597Z,452
2018-09-26T10:17:31.263Z,452.3
2018-09-26T10:18:33.781Z,452.4
2018-09-26T10:19:36.228Z,451.9
2018-09-26T10:20:38.672Z,451.9
2018-09-26T10:21:41.117Z,451.8
2018-09-26T10:22:43.272Z,451.9
2018-09-26T10:23:45.706Z,451.7
2018-09-26T10:24:47.593Z,451.3
2018-09-26T10:25:50.027Z,451.2
2018-09-26T10:26:52.184Z,451.6
2018-09-26T10:27:54.635Z,451.5
2018-09-26T10:28:57.159Z,451.6
2018-09-26T10:29:59.589Z,451.7
2018-09-26T10:31:01.746Z,451.7
2018-09-26T10:32:04.222Z,452.3
2018-09-26T10:33:06.647Z,452.4
2018-09-26T10:34:09.082Z,452.3
2018-09-26T10:35:11.510Z,452.5
2018-09-26T10:36:13.660Z,452.2
2018-09-26T10:37:16.097Z,452.4
2018-09-26T10:38:18.460Z,452
2018-09-26T10:39:20.948Z,452
2018-09-26T10:40:23.160Z,452
2018-09-26T10:41:25.324Z,451.8
2018-09-26T10:42:27.764Z,451.5
2018-09-26T10:43:30.206Z,451.8
2018-09-26T10:44:32.356Z,451.9
2018-09-26T10:45:34.805Z,451.4
2018-09-26T10:46:37.105Z,451.2
2018-09-26T10:47:39.523Z,451.8
2018-09-26T10:48:41.668Z,451.2
2018-09-26T10:49:44.106Z,451.5
2018-09-26T10:50:46.534Z,451.8
2018-09-26T10:51:48.964Z,451.4
2018-09-26T10:52:51.406Z,452
2018-09-26T10:53:53.838Z,451.9
2018-09-26T10:54:56.269Z,452.2
2018-09-26T10:55:58.700Z,452.3
2018-09-26T10:57:01.180Z,452.5
2018-09-26T10:58:03.608Z,452.3
2018-09-26T10:59:05.760Z,452.4
2018-09-26T11:00:08.210Z,451.8
2018-09-26T11:01:10.642Z,452.2
2018-09-26T11:02:13.476Z,452.1
2018-09-26T11:03:15.688Z,452
2018-09-26T11:04:18.116Z,452
2018-09-26T11:05:20.316Z,451.6
2018-09-26T11:06:22.754Z,452
2018-09-26T11:07:25.198Z,451.9
2018-09-26T11:08:28.075Z,451.7
2018-09-26T11:09:30.221Z,451.8
2018-09-26T11:10:32.667Z,451.9
2018-09-26T11:11:35.103Z,452
2018-09-26T11:12:37.948Z,452.1
2018-09-26T11:13:40.428Z,451.8
2018-09-26T11:14:42.858Z,452.1
2018-09-26T11:15:45.281Z,452.1
2018-09-26T11:16:47.709Z,451.8
2018-09-26T11:17:49.879Z,452
2018-09-26T11:18:52.667Z,452.2
2018-09-26T11:19:54.885Z,452.3
2018-09-26T11:20:57.025Z,452.3
2018-09-26T11:21:59.516Z,452.5
2018-09-26T11:23:01.991Z,452.6
2018-09-26T11:24:04.424Z,452.6
2018-09-26T11:25:06.616Z,453
2018-09-26T11:26:09.480Z,453.5
2018-09-26T11:27:11.904Z,453.1
2018-09-26T11:28:14.594Z,453.2
2018-09-26T11:29:17.082Z,453.3
2018-09-26T11:30:19.512Z,453.4
2018-09-26T11:31:21.936Z,453.7
2018-09-26T11:32:24.888Z,453.3
2018-09-26T11:33:27.958Z,453.6
2018-09-26T11:34:30.468Z,453.8
2018-09-26T11:35:32.616Z,453.8
2018-09-26T11:36:34.510Z,453.7
2018-09-26T11:37:36.660Z,453.5
2018-09-26T11:38:39.087Z,453.8
2018-09-26T11:39:41.543Z,453.3
2018-09-26T11:40:43.973Z,453.5
2018-09-26T11:41:46.395Z,453
2018-09-26T11:42:48.567Z,453.4
2018-09-26T11:43:50.998Z,453.4
2018-09-26T11:44:53.752Z,453.2
2018-09-26T11:45:56.171Z,453.5
2018-09-26T11:46:58.609Z,453
2018-09-26T11:48:01.037Z,453.8
2018-09-26T11:49:03.479Z,453.7
2018-09-26T11:50:05.984Z,454.4
2018-09-26T11:51:08.409Z,454.2
2018-09-26T11:52:10.651Z,454.7
2018-09-26T11:53:13.145Z,454.6
2018-09-26T11:54:15.300Z,454.8
2018-09-26T11:55:17.474Z,455
2018-09-26T11:56:19.768Z,455.1
2018-09-26T11:57:22.214Z,455.2
2018-09-26T11:58:25.343Z,455.3
2018-09-26T11:59:27.835Z,455
2018-09-26T12:00:30.002Z,455.2
2018-09-26T12:01:32.453Z,454.8
2018-09-26T12:02:35.859Z,455.2
2018-09-26T12:03:38.284Z,454.9
2018-09-26T12:04:40.726Z,455.2
2018-09-26T12:05:43.215Z,455.3
2018-09-26T12:06:45.650Z,455.3
2018-09-26T12:07:47.550Z,455.3
2018-09-26T12:08:49.710Z,455.5
2018-09-26T12:09:51.859Z,455.4
2018-09-26T12:10:54.024Z,455.1
2018-09-26T12:11:56.181Z,455.3
2018-09-26T12:12:58.072Z,455.8
2018-09-26T12:14:00.937Z,455.7
2018-09-26T12:15:03.089Z,456.1
2018-09-26T12:16:05.698Z,456.2
2018-09-26T12:17:08.115Z,456.5
2018-09-26T12:18:10.710Z,456.8
2018-09-26T12:19:13.016Z,456.6
2018-09-26T12:20:15.485Z,456.6
2018-09-26T12:22:24.758Z,456.7
2018-09-26T12:23:27.194Z,456.5
2018-09-26T12:24:29.354Z,456.4
2018-09-26T12:25:31.520Z,456.5
2018-09-26T12:26:33.949Z,456.4
2018-09-26T12:27:36.382Z,456.9
2018-09-26T12:28:38.539Z,457
2018-09-26T12:29:40.703Z,456.9
2018-09-26T12:30:43.131Z,457.1
2018-09-26T12:31:45.563Z,456.9
2018-09-26T12:32:47.737Z,457
2018-09-26T12:33:49.882Z,457.1
2018-09-26T12:34:52.617Z,457
2018-09-26T12:35:55.068Z,457.2
2018-09-26T12:36:56.935Z,457
2018-09-26T12:37:59.376Z,457.3
2018-09-26T12:39:01.819Z,457.3
2018-09-26T12:40:04.254Z,457.6
2018-09-26T12:41:06.148Z,457.3
2018-09-26T12:42:08.749Z,457.2
2018-09-26T12:43:11.184Z,457.2
2018-09-26T12:44:13.621Z,457.3
2018-09-26T12:45:15.511Z,457
2018-09-26T12:46:18.283Z,457.6
2018-09-26T12:47:20.911Z,457.7
2018-09-26T12:48:23.300Z,457.5
2018-09-26T12:49:25.790Z,457.8
2018-09-26T12:50:28.215Z,458.1
2018-09-26T12:51:30.661Z,458
2018-09-26T12:52:32.787Z,457.7
2018-09-26T12:53:35.651Z,458
2018-09-26T12:54:38.097Z,458.2
2018-09-26T12:55:40.540Z,458
2018-09-26T12:56:42.420Z,458
2018-09-26T12:57:44.869Z,458.1
2018-09-26T12:58:47.308Z,458
2018-09-26T12:59:49.740Z,458
2018-09-26T13:00:52.182Z,457.9
2018-09-26T13:01:54.071Z,458.1
2018-09-26T13:02:56.512Z,457.7
2018-09-26T13:03:58.950Z,457.5
2018-09-26T13:05:01.389Z,457.7
2018-09-26T13:06:03.893Z,457.7
2018-09-26T13:07:06.313Z,457.9
2018-09-26T13:08:08.832Z,457.7
2018-09-26T13:09:11.270Z,457.9
2018-09-26T13:10:13.897Z,458.1
2018-09-26T13:11:16.386Z,458.5
2018-09-26T13:12:18.903Z,458.4
2018-09-26T13:13:21.348Z,458.2
2018-09-26T13:14:24.183Z,458.5
2018-09-26T13:15:26.673Z,458.3
2018-09-26T13:16:29.098Z,458.4
2018-09-26T13:17:31.525Z,458.4
2018-09-26T13:18:33.957Z,458
2018-09-26T13:19:36.412Z,458.3
2018-09-26T13:20:38.844Z,458.2
2018-09-26T13:21:41.013Z,458.8
2018-09-26T13:22:43.452Z,458.9
2018-09-26T13:23:45.884Z,458.6
2018-09-26T13:24:48.318Z,458.7
2018-09-26T13:25:50.782Z,458.7
2018-09-26T13:26:52.939Z,458.8
2018-09-26T13:27:55.370Z,459.2
2018-09-26T13:28:57.792Z,459
2018-09-26T13:29:59.959Z,458.9
2018-09-26T13:31:02.780Z,459.1
2018-09-26T13:32:05.277Z,459.2
2018-09-26T13:33:07.699Z,459.3
2018-09-26T13:34:10.371Z,459.7
2018-09-26T13:35:12.467Z,459.5
2018-09-26T13:36:14.863Z,459.5
2018-09-26T13:37:17.357Z,459.3
2018-09-26T13:38:20.156Z,459.5
2018-09-26T13:39:21.799Z,460
2018-09-26T13:40:24.838Z,460.1
2018-09-26T13:41:27.326Z,460.1
2018-09-26T13:42:29.957Z,459.8
2018-09-26T13:43:32.398Z,459.9
2018-09-26T13:44:34.842Z,460.1
2018-09-26T13:45:37.424Z,460.1
2018-09-26T13:46:40.804Z,460.2
2018-09-26T13:47:43.287Z,459.8
2018-09-26T13:48:45.732Z,460
2018-09-26T13:49:47.888Z,460
2018-09-26T13:50:50.321Z,459.7
2018-09-26T13:51:52.760Z,459.4
2018-09-26T13:52:54.914Z,459.4
2018-09-26T13:53:57.569Z,459.5
2018-09-26T13:55:00.034Z,459.3
2018-09-26T13:56:02.191Z,459.1
2018-09-26T13:57:04.651Z,459.3
2018-09-26T13:58:07.255Z,459.7
2018-09-26T13:59:09.731Z,459.3
2018-09-26T14:00:12.386Z,459
2018-09-26T14:01:14.817Z,459.5
2018-09-26T14:02:17.711Z,459.5
2018-09-26T14:03:20.230Z,459.3
2018-09-26T14:04:23.262Z,459.6
2018-09-26T14:05:25.767Z,459.6
2018-09-26T14:06:28.204Z,460.3
2018-09-26T14:07:30.679Z,460
2018-09-26T14:08:33.416Z,460.4
2018-09-26T14:09:35.901Z,460.5
2018-09-26T14:10:38.622Z,460.6
2018-09-26T14:11:55.788Z,460.6
2018-09-26T14:12:57.945Z,460.8
2018-09-26T14:14:00.375Z,460.6
2018-09-26T14:15:02.815Z,461
2018-09-26T14:16:05.249Z,460.4
2018-09-26T14:17:07.501Z,460.6
2018-09-26T14:18:09.793Z,460.4
2018-09-26T14:19:11.938Z,460.4
2018-09-26T14:20:14.007Z,460.4
2018-09-26T14:21:16.449Z,460.4
2018-09-26T14:22:18.876Z,460.8
2018-09-26T14:23:21.225Z,460.8
2018-09-26T14:24:23.513Z,460.6
2018-09-26T14:25:25.950Z,461.1
2018-09-26T14:26:28.679Z,461
2018-09-26T14:27:31.111Z,461
2018-09-26T14:28:33.556Z,460.9
2018-09-26T14:29:36.012Z,461.2
2018-09-26T14:30:40.136Z,461.2
2018-09-26T14:31:42.645Z,461.2
2018-09-26T14:32:45.079Z,461.3
2018-09-26T14:33:47.932Z,461.6
2018-09-26T14:34:50.414Z,461.6
2018-09-26T14:35:52.567Z,461.7
2018-09-26T14:36:55.003Z,462
2018-09-26T14:37:57.446Z,462.2
2018-09-26T14:39:00.869Z,462.2
2018-09-26T14:40:02.788Z,462
2018-09-26T14:41:05.241Z,462.5
2018-09-26T14:42:07.669Z,462.5
2018-09-26T14:43:10.103Z,462.6
2018-09-26T14:44:12.413Z,462.9
2018-09-26T14:45:14.723Z,462.7
2018-09-26T14:46:17.208Z,462.6
2018-09-26T14:47:19.740Z,462.5
2018-09-26T14:48:21.971Z,462.9
2018-09-26T14:49:24.611Z,463.1
2018-09-26T14:50:26.797Z,462.9
2018-09-26T14:51:28.548Z,462.9
2018-09-26T14:52:30.703Z,463.3
2018-09-26T14:53:33.137Z,462.9
2018-09-26T14:54:35.564Z,462.6
2018-09-26T14:55:37.460Z,462.4
2018-09-26T14:56:39.905Z,462.5
2018-09-26T14:57:42.341Z,462.7
2018-09-26T14:58:44.788Z,462.6
2018-09-26T14:59:47.205Z,462.6
2018-09-26T15:00:49.639Z,463.1
2018-09-26T15:01:52.098Z,462.5
2018-09-26T15:02:53.984Z,462.4
2018-09-26T15:03:56.423Z,462.8
2018-09-26T15:04:58.851Z,462.8
2018-09-26T15:06:01.305Z,462.7
2018-09-26T15:07:03.759Z,463
2018-09-26T15:08:06.327Z,462.9
2018-09-26T15:09:08.752Z,463
2018-09-26T15:10:11.301Z,463
2018-09-26T15:11:13.857Z,463.1
2018-09-26T15:12:16.367Z,463.2
2018-09-26T15:13:18.886Z,463.4
2018-09-26T15:14:21.722Z,463.4
2018-09-26T15:15:23.961Z,463.7
2018-09-26T15:16:26.647Z,463.9
2018-09-26T15:17:28.652Z,463.9
2018-09-26T15:18:31.081Z,463.8
2018-09-26T15:19:33.521Z,463.8
2018-09-26T15:20:36.474Z,463.7
2018-09-26T15:21:38.922Z,463.6
2018-09-26T15:22:41.345Z,463.7
2018-09-26T15:23:43.972Z,463.4
2018-09-26T15:24:46.424Z,463.1
2018-09-26T15:25:48.851Z,463.4
2018-09-26T15:26:51.285Z,463.6
2018-09-26T15:27:53.895Z,463.5
2018-09-26T15:28:56.060Z,463.4
2018-09-26T15:29:58.209Z,463.7
2018-09-26T15:31:00.645Z,463.8
2018-09-26T15:32:03.092Z,463.8
2018-09-26T15:33:05.518Z,463.9
2018-09-26T15:34:08.264Z,464.2
2018-09-26T15:35:10.827Z,464.3
2018-09-26T15:36:12.866Z,464
2018-09-26T15:37:15.370Z,464.4
2018-09-26T15:38:17.787Z,464.6
2018-09-26T15:39:20.218Z,464.5
2018-09-26T15:40:22.816Z,464.4
2018-09-26T15:41:25.108Z,464.7
2018-09-26T15:42:27.827Z,464.6
2018-09-26T15:43:30.256Z,464.5
2018-09-26T15:44:32.684Z,464.4
2018-09-26T15:45:35.117Z,464.7
2018-09-26T15:46:37.260Z,464.5
2018-09-26T15:47:39.704Z,464.8
2018-09-26T15:48:42.500Z,464.5
2018-09-26T15:49:44.648Z,464.5
2018-09-26T15:50:47.073Z,464.6
2018-09-26T15:51:49.234Z,465
2018-09-26T15:52:51.836Z,465.1
2018-09-26T15:53:54.333Z,465.2
2018-09-26T15:54:56.757Z,465.1
2018-09-26T15:55:58.644Z,464.9
2018-09-26T15:57:00.828Z,464.9
2018-09-26T15:58:03.293Z,465
2018-09-26T15:59:05.456Z,465
2018-09-26T16:00:07.991Z,465
2018-09-26T16:01:10.418Z,465.1
2018-09-26T16:02:13.036Z,465.3
2018-09-26T16:03:15.520Z,464.9
2018-09-26T16:04:18.358Z,464.9
2018-09-26T16:05:20.838Z,464.9
2018-09-26T16:06:23.853Z,464.5
2018-09-26T16:07:26.056Z,464.5
2018-09-26T16:08:28.604Z,464.3
2018-09-26T16:09:31.054Z,463.7
2018-09-26T16:10:33.208Z,464.1
2018-09-26T16:11:35.637Z,464.1
2018-09-26T16:12:38.129Z,463.9
2018-09-26T16:13:40.590Z,463.7
2018-09-26T16:14:43.035Z,463.8
2018-09-26T16:15:45.590Z,464
2018-09-26T16:16:48.037Z,463.9
2018-09-26T16:17:50.202Z,463.9
2018-09-26T16:18:52.637Z,464
2018-09-26T16:19:54.811Z,463.8
2018-09-26T16:20:57.265Z,464
2018-09-26T16:21:59.438Z,464
2018-09-26T16:23:01.884Z,464
2018-09-26T16:24:04.323Z,464
2018-09-26T16:25:06.751Z,463.6
2018-09-26T16:26:08.717Z,463.7
2018-09-26T16:27:11.160Z,463.1
2018-09-26T16:28:13.948Z,463.7
2018-09-26T16:29:16.405Z,463.6
2018-09-26T16:30:18.861Z,464.1
2018-09-26T16:31:20.774Z,463.6
2018-09-26T16:32:23.595Z,463.8
2018-09-26T16:33:25.836Z,463.8
2018-09-26T16:34:28.237Z,463.4
2018-09-26T16:35:30.671Z,463.6
2018-09-26T16:36:32.847Z,463.8
2018-09-26T16:37:35.300Z,464.2
2018-09-26T16:38:37.488Z,463.7
2018-09-26T16:39:40.700Z,463.9
2018-09-26T16:40:42.990Z,463.9
2018-09-26T16:41:45.445Z,463.9
2018-09-26T16:42:47.948Z,464.2
2018-09-26T16:43:50.106Z,464
2018-09-26T16:44:52.298Z,463.8
2018-09-26T16:45:54.215Z,463.8
2018-09-26T16:46:56.669Z,463.8
2018-09-26T16:47:58.581Z,463.9
2018-09-26T16:49:00.817Z,464
2018-09-26T16:50:03.067Z,463.6
2018-09-26T16:51:05.220Z,463.5
2018-09-26T16:52:07.598Z,463.1
2018-09-26T16:53:10.067Z,463.1
2018-09-26T16:54:12.724Z,463.7
2018-09-26T16:55:14.900Z,463
2018-09-26T16:56:17.682Z,463